W2CS Weather Reports


Display with metric or nautical units.
time (UTC)temp
F
wind
direction
speed
MPH
gust
MPH
rain 1hr
in
rain 24hr
in
rain mn
in
humidity
%
barometer
mb
20200330014240 43 261 1.0 8.0 0.00 0.62 0.49 97 1014.6
20200330013239 43 98 0.0 5.0 0.00 0.61 0.48 97 1014.6
20200330012216 43 46 1.0 5.0 0.00 0.61 0.48 97 1015.1
20200330011207 43 325 1.0 10.0 0.00 0.62 0.48 97 1014.8
20200330010201 43 26 2.0 10.0 0.00 0.60 0.47 97 1014.8
20200330005211 43 163 1.0 9.0 0.04 0.62 0.47 97 1015.3
20200330004206 43 113 1.0 13.0 0.04 0.64 0.47 97 1015.6
20200330003145 43 19 2.0 13.0 0.00 0.64 0.46 97 1015.6
20200330002114 43 182 1.0 6.0 0.00 0.66 0.45 97 1016.3
20200330001133 43 324 1.0 6.0 0.05 0.66 0.45 97 1016.4
20200330000133 43 11 1.0 5.0 0.00 0.66 0.43 96 1016.4
20200329235154 43 342 2.0 6.0 0.00 0.66 0.43 96 1016.6
20200329234137 43 76 2.0 8.0 0.00 0.67 0.43 96 1016.3
20200329233108 43 79 2.0 8.0 0.00 0.67 0.43 96 1016.3
20200329232108 43 68 2.0 6.0 0.00 0.67 0.43 96 1016.3
20200329231109 43 327 2.0 9.0 0.00 0.68 0.42 96 1016.4
20200329230102 42 17 2.0 10.0 0.00 0.68 0.42 96 1016.4
20200329225116 42 355 2.0 10.0 0.00 0.69 0.42 96 1016.7
20200329224136 43 42 2.0 9.0 0.00 0.67 0.40 96 1016.6
20200329223104 43 191 2.0 12.0 0.00 0.68 0.40 96 1016.6
20200329222042 43 80 2.0 12.0 0.00 0.69 0.40 96 1016.2
20200329221048 43 346 2.0 8.0 0.00 0.69 0.40 96 1016.0
20200329220052 43 129 3.0 12.0 0.00 0.70 0.40 96 1016.0
20200329215113 43 127 2.0 12.0 0.00 0.71 0.40 96 1016.2
20200329214047 43 185 1.0 12.0 0.00 0.70 0.40 96 1016.3
20200329213056 43 134 2.0 9.0 0.00 0.70 0.40 96 1016.3
20200329212040 43 57 2.0 10.0 0.00 0.70 0.40 96 1016.8
20200329211102 43 298 2.0 10.0 0.00 0.70 0.40 95 1016.8
20200329210039 43 344 2.0 9.0 0.00 0.70 0.40 95 1016.8
20200329205100 43 128 2.0 8.0 0.00 0.70 0.38 95 1017.6
20200329204042 43 111 2.0 8.0 0.00 0.70 0.38 94 1017.9
20200329203100 43 67 1.0 12.0 0.00 0.70 0.38 94 1017.9
20200329202054 43 87 2.0 12.0 0.00 0.70 0.38 94 1017.4
20200329201030 43 212 2.0 8.0 0.00 0.70 0.38 94 1018.2
20200329200046 43 152 1.0 9.0 0.00 0.70 0.38 95 1018.2
20200329195012 43 145 1.0 9.0 0.00 0.70 0.38 95 1018.8
20200329194036 43 164 1.0 9.0 0.00 0.70 0.38 95 1019.4
20200329193014 43 292 2.0 9.0 0.00 0.70 0.38 95 1019.4
20200329192014 43 306 1.0 10.0 0.00 0.70 0.38 95 1019.5
20200329191023 43 94 2.0 10.0 0.00 0.70 0.38 95 1019.0
20200329190041 43 71 2.0 10.0 0.00 0.70 0.38 95 1019.0
20200329185054 43 154 2.0 10.0 0.00 0.70 0.38 96 1019.4
20200329184117 43 134 3.0 10.0 0.00 0.70 0.38 95 1020.0
20200329183054 44 0 2.0 14.0 0.00 0.70 0.38 96 1020.0
20200329182033 44 137 2.0 14.0 0.04 0.70 0.38 96 1019.6
20200329181043 44 137 2.0 8.0 0.10 0.70 0.38 96 1020.0
20200329180016 44 128 1.0 7.0 0.00 0.67 0.37 96 1020.0
20200329175026 44 129 2.0 9.0 0.00 0.67 0.36 95 1021.0
20200329174033 44 99 2.0 9.0 0.05 0.67 0.36 96 1021.1
20200329173047 44 148 2.0 9.0 0.13 0.67 0.36 95 1021.1
20200329172040 44 103 1.0 7.0 0.27 0.64 0.34 95 1022.6
20200329171017 44 311 0.0 3.0 0.00 0.60 0.28 96 1021.6
20200329170041 44 336 1.0 5.0 0.00 0.60 0.28 94 1021.6
20200329165101 44 25 2.0 10.0 0.00 0.59 0.27 93 1021.4
20200329164028 45 54 2.0 10.0 0.00 0.59 0.27 93 1021.5
20200329162958 45 88 1.0 8.0 0.00 0.59 0.27 93 1021.5
20200329162006 45 344 1.0 8.0 0.00 0.59 0.27 93 1021.5
20200329160944 45 306 1.0 6.0 0.00 0.59 0.27 93 1021.6
20200329155925 45 253 2.0 6.0 0.00 0.59 0.27 93 1021.6
20200329154920 45 102 2.0 5.0 0.00 0.59 0.27 93 1021.6
20200329153940 45 204 1.0 11.0 0.00 0.59 0.27 93 1021.3
20200329152954 45 24 2.0 11.0 0.00 0.59 0.27 93 1021.3
20200329151921 45 181 2.0 10.0 0.00 0.59 0.27 94 1021.6
20200329150852 45 96 2.0 10.0 0.00 0.59 0.27 94 1021.7
20200329145817 44 113 3.0 9.0 0.00 0.57 0.27 95 1022.4
20200329144837 44 140 2.0 12.0 0.00 0.57 0.27 95 1022.4
20200329143804 44 173 2.0 12.0 0.00 0.57 0.27 95 1022.7
20200329142734 44 99 1.0 6.0 0.00 0.57 0.27 95 1022.7
20200329141706 45 103 1.0 11.0 0.00 0.57 0.27 95 1022.7
20200329140639 45 94 2.0 11.0 0.00 0.57 0.27 95 1022.2
20200329135631 45 325 2.0 10.0 0.00 0.57 0.27 95 1022.7
20200329134609 45 92 2.0 10.0 0.00 0.57 0.27 95 1022.7
20200329133558 45 192 2.0 6.0 0.00 0.57 0.27 95 1022.7
20200329132606 45 282 1.0 10.0 0.00 0.57 0.27 95 1022.7
20200329131614 45 54 2.0 10.0 0.00 0.57 0.27 95 1022.7
20200329130540 45 126 3.0 10.0 0.00 0.57 0.27 95 1022.5
20200329125601 45 244 2.0 13.0 0.00 0.57 0.27 96 1022.1
20200329124626 45 250 2.0 13.0 0.00 0.57 0.27 96 1022.1
20200329123633 45 146 2.0 11.0 0.00 0.57 0.27 96 1022.1
20200329122610 45 109 2.0 9.0 0.00 0.57 0.27 96 1022.4
20200329121554 45 319 2.0 14.0 0.00 0.57 0.27 96 1022.4
20200329120603 45 30 2.0 14.0 0.04 0.57 0.27 96 1022.7
20200329115529 45 115 2.0 12.0 0.06 0.57 0.27 96 1022.2
20200329114549 45 121 3.0 12.0 0.00 0.57 0.26 96 1022.2
20200329113538 45 62 2.0 10.0 0.00 0.55 0.25 96 1022.6
20200329112525 45 244 2.0 13.0 0.00 0.55 0.25 96 1022.5
20200329111522 45 143 2.0 13.0 0.00 0.55 0.24 96 1022.5
20200329110539 44 232 2.0 12.0 0.00 0.55 0.24 96 1022.4
20200329105537 44 67 2.0 11.0 0.00 0.55 0.24 96 1022.2
20200329104544 44 249 2.0 8.0 0.06 0.55 0.24 96 1022.2
20200329103537 44 173 3.0 11.0 0.00 0.54 0.23 96 1022.1
20200329102601 44 57 2.0 12.0 0.00 0.52 0.21 96 1021.9
20200329101543 44 84 2.0 12.0 0.00 0.52 0.21 96 1021.9
20200329100512 45 248 2.0 10.0 0.00 0.52 0.21 96 1021.6
20200329095438 45 40 2.0 11.0 0.00 0.52 0.21 97 1021.6
20200329094456 45 27 2.0 11.0 0.00 0.50 0.20 97 1021.6
20200329093458 45 117 2.0 14.0 0.00 0.50 0.20 97 1021.1
20200329092438 45 228 2.0 14.0 0.00 0.50 0.20 96 1021.1
20200329091449 45 163 3.0 13.0 0.00 0.50 0.20 96 1021.1
20200329090419 44 128 2.0 10.0 0.00 0.50 0.20 97 1020.7
20200329085412 44 142 1.0 10.0 0.00 0.50 0.19 97 1021.6
20200329084343 44 38 2.0 9.0 0.00 0.50 0.19 97 1021.7
20200329083324 44 146 2.0 9.0 0.00 0.50 0.19 97 1021.7
20200329082321 44 201 2.0 8.0 0.00 0.49 0.18 97 1021.8
20200329081316 44 209 1.0 8.0 0.00 0.49 0.18 97 1021.5
20200329080326 44 343 2.0 9.0 0.04 0.49 0.18 96 1021.5
20200329075331 44 128 3.0 9.0 0.06 0.49 0.18 97 1021.8
20200329074335 44 79 1.0 10.0 0.06 0.47 0.17 97 1021.6
20200329073319 44 38 2.0 10.0 0.05 0.47 0.16 97 1021.6
20200329072333 43 153 1.0 6.0 0.00 0.46 0.15 97 1021.7
20200329071324 43 27 1.0 7.0 0.00 0.45 0.13 97 1021.6
20200329070301 43 85 2.0 12.0 0.00 0.45 0.13 96 1021.6
20200329065314 43 5 2.0 12.0 0.00 0.45 0.13 96 1021.5
20200329064249 43 95 2.0 11.0 0.05 0.44 0.13 96 1021.3
20200329063223 43 147 1.0 6.0 0.06 0.44 0.13 96 1021.3
20200329062159 43 102 2.0 6.0 0.06 0.43 0.12 96 1021.6
20200329061148 43 29 1.0 8.0 0.00 0.41 0.10 96 1021.9
20200329060142 43 99 1.0 8.0 0.00 0.41 0.10 96 1021.9
20200329055109 43 265 2.0 8.0 0.04 0.41 0.10 96 1022.0
20200329054117 43 89 1.0 6.0 0.04 0.41 0.10 96 1022.3
20200329053102 43 76 1.0 6.0 0.04 0.40 0.09 96 1022.3
20200329052058 43 22 1.0 5.0 0.04 0.39 0.08 96 1022.6
20200329051051 43 10 1.0 6.0 0.06 0.39 0.08 96 1022.6
20200329050115 43 107 1.0 6.0 0.10 0.38 0.06 96 1022.6
20200329045058 43 151 1.0 6.0 0.08 0.36 0.05 96 1022.6
20200329044122 43 67 1.0 6.0 0.04 0.35 0.04 96 1022.6
20200329043108 43 99 1.0 8.0 0.04 0.34 0.03 96 1022.6
20200329042047 43 113 0.0 8.0 0.05 0.33 0.02 96 1022.6
20200329041017 43 197 0.0 3.0 0.10 0.31 0.02 97 1023.1
20200329035946 43 65 0.0 4.0 0.26 0.31 0.31 96 1023.1
20200329034922 43 34 0.0 4.0 0.21 0.26 0.27 96 1023.3
20200329033939 43 28 0.0 4.0 0.00 0.24 0.25 96 1023.1
20200329032957 42 273 1.0 5.0 0.00 0.24 0.25 96 1023.1
20200329032016 42 164 1.0 5.0 0.00 0.24 0.24 96 1023.1
20200329031017 42 108 1.0 5.0 0.00 0.24 0.24 96 1023.7
20200329030039 42 120 0.0 0.0 0.04 0.23 0.23 96 1023.7
20200329025019 42 239 0.0 3.0 0.04 0.23 0.23 96 1023.7
20200329023954 42 55 0.0 1.0 0.05 0.21 0.21 96 1024.2
20200329022936 42 19 0.0 1.0 0.05 0.21 0.21 96 1024.2
20200329021922 42 94 0.0 1.0 0.05 0.19 0.21 96 1024.2
20200329020930 42 138 0.0 0.0 0.04 0.19 0.20 96 1024.2
20200329015920 42 145 0.0 1.0 0.00 0.19 0.19 96 1024.2
20200329015005 42 218 0.0 0.0 0.00 0.18 0.18 96 1024.4